Time;durP1;ratioP1;P1;durP2;ratioP2;P2;SDS_P1;SDS_P2;PMS_P1;PMS_P2;Temp;Humidity;BMP_temperature;BMP_pressure;BME280_temperature;BME280_humidity;BME280_pressure;Samples;Min_cycle;Max_cycle;Signal;HPM_P1;HPM_P2
2024/02/12 00:01:38;;;;;;;57.00;35.00;;;;;;;8.70;100.00;98503.89;106749;1298;22289;-55
2024/02/12 00:04:07;;;;;;;51.80;36.90;;;;;;;8.70;100.00;98504.22;106825;1316;22664;-58
2024/02/12 00:06:33;;;;;;;61.30;34.50;;;;;;;8.70;100.00;98503.20;106782;1313;22661;-58
2024/02/12 00:08:58;;;;;;;59.10;37.90;;;;;;;8.69;100.00;98507.70;106803;1316;22232;-58
2024/02/12 00:11:24;;;;;;;57.00;35.40;;;;;;;8.69;100.00;98506.53;106773;1294;22268;-58
2024/02/12 00:13:50;;;;;;;59.30;36.50;;;;;;;8.67;100.00;98502.45;106825;1316;22263;-58
2024/02/12 00:16:15;;;;;;;55.90;36.60;;;;;;;8.67;100.00;98506.25;106804;1315;22348;-58
2024/02/12 00:18:42;;;;;;;64.00;37.20;;;;;;;8.66;100.00;98507.66;106806;1316;22391;-58
2024/02/12 00:21:07;;;;;;;58.20;37.00;;;;;;;8.64;100.00;98506.02;106675;1300;22688;-57
2024/02/12 00:23:34;;;;;;;56.50;36.00;;;;;;;8.62;100.00;98503.86;106757;1316;22231;-58
2024/02/12 00:25:59;;;;;;;58.70;36.90;;;;;;;8.59;100.00;98506.55;106968;1315;22260;-58
2024/02/12 00:28:28;;;;;;;55.60;36.90;;;;;;;8.57;100.00;98506.45;106956;1313;23015;-58
2024/02/12 00:30:56;;;;;;;54.90;35.70;;;;;;;8.56;100.00;98509.60;106890;1298;22277;-58
2024/02/12 00:33:22;;;;;;;60.90;36.60;;;;;;;8.55;100.00;98508.64;106937;1315;22219;-57
2024/02/12 00:35:48;;;;;;;58.00;37.30;;;;;;;8.53;100.00;98510.73;106927;1316;22282;-58
2024/02/12 00:38:14;;;;;;;61.10;36.60;;;;;;;8.53;100.00;98511.45;106901;1312;22246;-56
2024/02/12 00:40:40;;;;;;;56.50;36.60;;;;;;;8.52;100.00;98512.16;106850;1297;22663;-57
2024/02/12 00:43:08;;;;;;;49.50;34.40;;;;;;;8.53;100.00;98514.05;105884;1318;24248;-59
2024/02/12 00:45:34;;;;;;;52.90;33.40;;;;;;;8.52;100.00;98515.43;104339;1316;23022;-58
2024/02/12 00:48:01;;;;;;;54.30;33.70;;;;;;;8.52;100.00;98512.52;102987;1316;24582;-58
2024/02/12 00:50:27;;;;;;;51.70;31.90;;;;;;;8.51;100.00;98514.78;103259;1316;23056;-57
2024/02/12 00:52:53;;;;;;;45.50;31.80;;;;;;;8.52;100.00;98515.96;103425;1306;23388;-58
2024/02/12 00:55:20;;;;;;;46.30;30.10;;;;;;;8.53;100.00;98514.89;103455;1315;25300;-60
2024/02/12 00:57:46;;;;;;;46.80;29.80;;;;;;;8.54;100.00;98516.06;106908;1316;22276;-58
2024/02/12 01:00:14;;;;;;;48.90;29.50;;;;;;;8.54;100.00;98515.01;106640;1315;25652;-59
2024/02/12 01:02:43;;;;;;;44.90;26.70;;;;;;;8.55;100.00;98513.09;103259;1304;25550;-59
2024/02/12 01:05:10;;;;;;;47.70;27.50;;;;;;;8.55;100.00;98511.38;103241;1316;23115;-59
2024/02/12 01:07:37;;;;;;;41.30;26.00;;;;;;;8.54;100.00;98511.40;106629;1316;22414;-59
2024/02/12 01:10:06;;;;;;;43.60;26.90;;;;;;;8.55;100.00;98512.08;103812;1316;22792;-60
2024/02/12 01:12:32;;;;;;;36.40;24.30;;;;;;;8.54;100.00;98512.28;106859;1295;23072;-59
2024/02/12 01:15:01;;;;;;;41.30;25.30;;;;;;;8.56;100.00;98513.39;106598;1315;22610;-60
2024/02/12 01:17:29;;;;;;;38.30;23.10;;;;;;;8.54;100.00;98512.25;103406;1315;25679;-59
2024/02/12 01:19:55;;;;;;;29.70;20.50;;;;;;;8.55;100.00;98515.84;103382;1315;24451;-58
2024/02/12 01:22:20;;;;;;;34.30;24.10;;;;;;;8.57;100.00;98514.71;103330;1298;25529;-58
2024/02/12 01:24:47;;;;;;;29.90;21.40;;;;;;;8.55;100.00;98515.16;103285;1316;25404;-58
2024/02/12 01:27:13;;;;;;;31.90;22.60;;;;;;;8.55;100.00;98517.89;103289;1316;26514;-58
2024/02/12 01:29:40;;;;;;;33.80;22.20;;;;;;;8.54;100.00;98517.08;103333;1316;22649;-58
2024/02/12 01:32:07;;;;;;;32.30;21.80;;;;;;;8.53;100.00;98514.53;105385;1297;22681;-57
2024/02/12 01:34:34;;;;;;;;;;;;;;;8.52;100.00;98513.55;103382;1314;22548;-58
2024/02/12 01:37:01;;;;;;;28.90;20.60;;;;;;;8.50;100.00;98516.19;105529;1310;22681;-59
2024/02/12 01:39:26;;;;;;;27.80;20.20;;;;;;;8.51;100.00;98514.96;106835;1315;22301;-59
2024/02/12 01:41:52;;;;;;;29.40;20.10;;;;;;;8.50;100.00;98523.27;106876;1295;22304;-59
2024/02/12 01:44:18;;;;;;;34.10;21.30;;;;;;;8.49;100.00;98520.73;106830;1316;22266;-59
2024/02/12 01:46:49;;;;;;;33.70;21.40;;;;;;;8.50;100.00;98524.64;104689;1316;22928;-58
2024/02/12 01:49:19;;;;;;;31.10;20.60;;;;;;;8.50;100.00;98526.50;103998;1316;22588;-59
2024/02/12 01:51:48;;;;;;;32.70;18.50;;;;;;;8.50;100.00;98527.39;103290;1316;23283;-59
2024/02/12 01:54:15;;;;;;;32.80;19.20;;;;;;;8.49;100.00;98527.05;104597;1315;22726;-60
2024/02/12 01:56:42;;;;;;;26.30;19.00;;;;;;;8.50;100.00;98528.05;103283;1315;22822;-59
2024/02/12 01:59:16;;;;;;;24.50;18.90;;;;;;;8.50;100.00;98527.38;105269;1301;23872;-60
2024/02/12 02:01:43;;;;;;;31.20;19.20;;;;;;;8.49;100.00;98530.86;105358;1316;23259;-60
2024/02/12 02:04:10;;;;;;;26.50;17.20;;;;;;;8.49;100.00;98527.42;103848;1297;22818;-58
2024/02/12 02:06:36;;;;;;;26.50;19.10;;;;;;;8.50;100.00;98533.39;103228;1316;22559;-59
2024/02/12 02:09:02;;;;;;;25.70;18.70;;;;;;;8.50;100.00;98532.20;103282;1316;23871;-58
2024/02/12 02:11:28;;;;;;;29.40;20.10;;;;;;;8.50;100.00;98532.88;103273;1316;22591;-58
2024/02/12 02:13:54;;;;;;;29.60;17.00;;;;;;;8.50;100.00;98533.04;103175;1298;22588;-59
2024/02/12 02:16:19;;;;;;;24.90;16.70;;;;;;;8.52;100.00;98532.42;103304;1316;22856;-61
2024/02/12 02:18:50;;;;;;;28.90;17.20;;;;;;;8.53;100.00;98531.88;103360;1316;22628;-59
2024/02/12 02:21:21;;;;;;;20.70;15.20;;;;;;;8.55;100.00;98530.94;105629;1315;22599;-59
2024/02/12 02:23:47;;;;;;;23.10;13.90;;;;;;;8.53;100.00;98536.02;104192;1297;24377;-59
2024/02/12 02:26:13;;;;;;;19.30;14.50;;;;;;;8.54;100.00;98536.81;103236;1301;24266;-59
2024/02/12 02:28:39;;;;;;;19.20;13.50;;;;;;;8.52;100.00;98536.89;103230;1311;23456;-59
2024/02/12 02:31:05;;;;;;;15.90;12.00;;;;;;;8.49;100.00;98541.83;103227;1313;22616;-59
2024/02/12 02:33:31;;;;;;;72.50;27.40;;;;;;;8.44;100.00;98541.54;103331;1297;22612;-59
2024/02/12 02:35:57;;;;;;;11.40;8.70;;;;;;;8.35;100.00;98545.66;106149;1315;22592;-59
2024/02/12 02:38:23;;;;;;;8.70;7.70;;;;;;;8.26;100.00;98547.23;104040;1311;23040;-58
2024/02/12 02:40:49;;;;;;;11.10;8.40;;;;;;;8.18;100.00;98549.08;103308;1315;25277;-59
2024/02/12 02:43:17;;;;;;;8.70;7.80;;;;;;;8.12;100.00;98556.20;103288;1298;23973;-58
2024/02/12 02:45:43;;;;;;;10.00;8.40;;;;;;;8.09;100.00;98559.08;103435;1313;22566;-58
2024/02/12 02:48:09;;;;;;;11.00;8.90;;;;;;;8.04;100.00;98564.07;103335;1304;22569;-59
2024/02/12 02:50:34;;;;;;;11.20;8.60;;;;;;;7.97;100.00;98565.49;103327;1315;22612;-53
2024/02/12 02:53:01;;;;;;;9.90;7.60;;;;;;;7.91;100.00;98566.94;103265;1296;22823;-59
2024/02/12 02:55:28;;;;;;;8.40;7.60;;;;;;;7.86;100.00;98568.00;103212;1316;25336;-58
2024/02/12 02:58:01;;;;;;;11.90;8.40;;;;;;;7.80;100.00;98573.73;106315;1310;22598;-58
2024/02/12 03:00:30;;;;;;;9.30;8.00;;;;;;;7.75;100.00;98575.65;103145;1316;23358;-58
2024/02/12 03:02:57;;;;;;;8.50;7.60;;;;;;;7.71;100.00;98577.02;103691;1316;22601;-58
2024/02/12 03:05:22;;;;;;;8.70;7.40;;;;;;;7.67;100.00;98582.63;103329;1298;22784;-57
2024/02/12 03:07:48;;;;;;;9.80;7.00;;;;;;;7.62;100.00;98581.25;103223;1310;22577;-59
2024/02/12 03:10:15;;;;;;;10.40;8.70;;;;;;;7.57;100.00;98583.33;103381;1315;22684;-59
2024/02/12 03:12:45;;;;;;;9.80;7.50;;;;;;;7.53;100.00;98584.50;103302;1301;22569;-58
2024/02/12 03:15:13;;;;;;;20.00;10.60;;;;;;;7.48;100.00;98587.41;103378;1297;22814;-58
2024/02/12 03:17:40;;;;;;;8.20;7.40;;;;;;;7.46;100.00;98589.39;106764;1316;22314;-60
2024/02/12 03:20:09;;;;;;;15.60;7.30;;;;;;;7.42;100.00;98592.61;104268;1316;24402;-57
2024/02/12 03:22:34;;;;;;;7.90;7.10;;;;;;;7.39;100.00;98594.43;104372;1311;22625;-55
2024/02/12 03:25:00;;;;;;;8.60;7.80;;;;;;;7.36;100.00;98595.41;103400;1297;25494;-58
2024/02/12 03:27:26;;;;;;;8.80;6.70;;;;;;;7.33;100.00;98599.27;103358;1308;22575;-59
2024/02/12 03:29:52;;;;;;;6.80;6.00;;;;;;;7.30;100.00;98602.45;103369;1315;22566;-56
2024/02/12 03:32:17;;;;;;;7.80;7.00;;;;;;;7.26;100.00;98602.13;103287;1314;23987;-58
2024/02/12 03:34:43;;;;;;;8.60;7.00;;;;;;;7.23;100.00;98604.95;103237;1298;25418;-57
2024/02/12 03:37:08;;;;;;;7.20;6.40;;;;;;;7.21;100.00;98609.83;103270;1314;24381;-59
2024/02/12 03:39:34;;;;;;;10.30;6.50;;;;;;;7.19;100.00;98608.89;103323;1313;22881;-57
2024/02/12 03:41:59;;;;;;;277.90;153.70;;;;;;;7.15;100.00;98614.50;103248;1316;22585;-59
2024/02/12 03:44:26;;;;;;;146.90;93.60;;;;;;;7.13;100.00;98616.11;103235;1294;23408;-58
2024/02/12 03:46:52;;;;;;;6.50;5.70;;;;;;;7.09;100.00;98617.44;103232;1301;22617;-59
2024/02/12 04:00:17;;;;;;;9.40;6.70;;;;;;;6.91;100.00;98630.38;103298;1316;22589;-58
2024/02/12 04:02:44;;;;;;;6.30;5.40;;;;;;;6.90;100.00;98631.79;106645;1316;22693;-59
2024/02/12 04:05:11;;;;;;;8.10;6.00;;;;;;;6.87;100.00;98632.23;103291;1297;25393;-58
2024/02/12 04:07:38;;;;;;;7.40;6.60;;;;;;;6.86;100.00;98637.89;103323;1315;22567;-59
2024/02/12 04:10:10;;;;;;;7.80;6.40;;;;;;;6.83;100.00;98638.53;103378;1300;22564;-59
2024/02/12 04:12:38;;;;;;;10.10;6.80;;;;;;;6.80;100.00;98638.42;104404;1315;22897;-59
2024/02/12 04:15:04;;;;;;;21.40;9.60;;;;;;;6.79;100.00;98640.69;104106;1315;22925;-59
2024/02/12 04:17:30;;;;;;;10.10;6.60;;;;;;;6.81;100.00;98644.08;103347;1315;22580;-58
2024/02/12 04:19:55;;;;;;;9.10;6.40;;;;;;;6.79;100.00;98646.88;103428;1313;22582;-59
2024/02/12 04:22:21;;;;;;;7.50;6.60;;;;;;;6.78;100.00;98649.63;103342;1314;24287;-57
2024/02/12 04:24:48;;;;;;;6.90;6.10;;;;;;;6.77;100.00;98650.19;103370;1310;22763;-58
2024/02/12 04:27:14;;;;;;;7.00;6.30;;;;;;;6.77;100.00;98653.96;106793;1316;22281;-58
2024/02/12 04:29:41;;;;;;;7.10;6.20;;;;;;;6.78;100.00;98652.23;103457;1304;24371;-59
2024/02/12 04:32:08;;;;;;;;;;;;;;;6.78;100.00;98655.81;103942;1316;22574;-65
2024/02/12 04:34:34;;;;;;;7.40;6.00;;;;;;;6.77;100.00;98655.83;103136;1316;22728;-57
2024/02/12 04:37:00;;;;;;;8.60;6.30;;;;;;;6.77;100.00;98656.52;103349;1298;22697;-58
2024/02/12 04:39:26;;;;;;;6.50;5.90;;;;;;;6.77;100.00;98659.79;103312;1316;22593;-57
2024/02/12 04:41:52;;;;;;;7.60;6.30;;;;;;;6.76;100.00;98661.55;103364;1315;22596;-59
2024/02/12 04:44:18;;;;;;;8.00;6.20;;;;;;;6.76;100.00;98664.80;103273;1301;22569;-60
2024/02/12 04:46:43;;;;;;;6.40;5.80;;;;;;;6.76;100.00;98669.27;103179;1297;22567;-58
2024/02/12 04:49:09;;;;;;;8.00;6.60;;;;;;;6.75;100.00;98668.61;103260;1304;25301;-59
2024/02/12 04:51:38;;;;;;;8.00;6.40;;;;;;;6.73;100.00;98668.14;103308;1316;22600;-65
2024/02/12 04:54:04;;;;;;;6.40;5.80;;;;;;;6.72;100.00;98672.80;103287;1316;26341;-58
2024/02/12 04:56:31;;;;;;;6.30;5.70;;;;;;;6.73;100.00;98673.79;103279;1297;23019;-59
2024/02/12 04:58:57;;;;;;;6.60;5.80;;;;;;;6.72;100.00;98675.73;103353;1307;22929;-59
2024/02/12 05:01:26;;;;;;;6.60;5.50;;;;;;;6.73;100.00;98673.65;103330;1316;22700;-58
2024/02/12 05:03:53;;;;;;;6.50;5.80;;;;;;;6.73;100.00;98677.41;103362;1315;22690;-59
2024/02/12 05:06:19;;;;;;;6.50;5.90;;;;;;;6.73;100.00;98679.13;104812;1298;22585;-58
2024/02/12 05:08:50;;;;;;;6.20;5.60;;;;;;;6.71;100.00;98678.30;106618;1317;22273;-60
2024/02/12 05:11:16;;;;;;;7.20;6.50;;;;;;;6.72;100.00;98679.48;103624;1307;23446;-58
2024/02/12 05:13:43;;;;;;;6.20;5.30;;;;;;;6.73;100.00;98683.06;103249;1313;25653;-59
2024/02/12 05:16:10;;;;;;;6.70;6.10;;;;;;;6.73;100.00;98684.08;103268;1294;22614;-58
2024/02/12 05:24:05;;;;;;;6.40;5.80;;;;;;;6.73;100.00;98692.97;103304;1316;22618;-58
2024/02/12 05:26:31;;;;;;;5.50;5.00;;;;;;;6.73;100.00;98692.83;103188;1297;22593;-58
2024/02/12 05:28:56;;;;;;;5.30;4.80;;;;;;;6.72;100.00;98694.71;103086;1317;26942;-59
2024/02/12 05:31:22;;;;;;;7.00;4.70;;;;;;;6.74;100.00;98700.16;103279;1316;27855;-58
2024/02/12 05:33:48;;;;;;;46.60;18.20;;;;;;;6.72;100.00;98700.02;103269;1310;25413;-58
2024/02/12 05:36:20;;;;;;;7.60;4.90;;;;;;;6.73;100.00;98704.29;103292;1292;25333;-58
2024/02/12 05:38:49;;;;;;;4.20;3.80;;;;;;;6.73;100.00;98703.95;103278;1307;22584;-59
2024/02/12 05:41:15;;;;;;;11.20;7.10;;;;;;;6.74;100.00;98707.48;105377;1316;22691;-59
2024/02/12 05:43:41;;;;;;;4.50;3.80;;;;;;;6.74;100.00;98708.70;106829;1316;22447;-59
2024/02/12 05:46:06;;;;;;;4.00;3.60;;;;;;;6.72;100.00;98712.53;97143;1311;5003386;-60
2024/02/12 05:48:34;;;;;;;4.20;3.80;;;;;;;6.73;100.00;98710.10;103345;1297;22617;-59
2024/02/12 05:50:59;;;;;;;3.90;3.50;;;;;;;6.74;100.00;98714.88;105066;1314;23938;-59
2024/02/12 05:53:28;;;;;;;4.30;3.90;;;;;;;6.75;100.00;98719.81;103468;1314;22650;-58
2024/02/12 05:55:55;;;;;;;5.20;4.10;;;;;;;6.73;100.00;98721.91;105402;1314;22598;-59
2024/02/12 05:58:24;;;;;;;4.50;3.80;;;;;;;6.72;100.00;98721.79;105895;1295;22642;-57
2024/02/12 06:00:49;;;;;;;4.50;4.10;;;;;;;6.75;100.00;98729.06;103413;1307;22592;-59
2024/02/12 06:03:15;;;;;;;154.00;77.80;;;;;;;6.74;100.00;98732.16;103295;1310;22592;-58
2024/02/12 06:05:40;;;;;;;4.70;3.70;;;;;;;6.74;100.00;98731.30;103366;1313;26175;-58
2024/02/12 06:08:07;;;;;;;6.20;3.80;;;;;;;6.73;100.00;98734.24;103256;1315;23486;-58
2024/02/12 06:10:33;;;;;;;4.70;3.60;;;;;;;6.74;100.00;98736.80;100914;1308;5004714;-57
2024/02/12 06:12:59;;;;;;;3.50;3.20;;;;;;;6.72;100.00;98740.09;103455;1314;22972;-59
2024/02/12 06:15:24;;;;;;;2.70;2.50;;;;;;;6.73;100.00;98745.73;103510;1314;25510;-58
2024/02/12 06:17:50;;;;;;;6.10;4.60;;;;;;;6.70;100.00;98745.45;103507;1292;27450;-58
2024/02/12 06:20:15;;;;;;;2.50;2.30;;;;;;;6.67;100.00;98748.63;103584;1314;22974;-61
2024/02/12 06:22:42;;;;;;;2.60;2.40;;;;;;;6.65;100.00;98752.13;103409;1314;23230;-58
2024/02/12 06:25:09;;;;;;;3.70;2.60;;;;;;;6.66;100.00;98753.81;103481;1307;22559;-58
2024/02/12 06:27:35;;;;;;;2.20;2.00;;;;;;;6.63;100.00;98756.27;104282;1292;22693;-58
2024/02/12 06:30:03;;;;;;;2.60;2.40;;;;;;;6.62;100.00;98759.90;103460;1308;22706;-58
2024/02/12 06:32:29;;;;;;;3.10;2.70;;;;;;;6.61;100.00;98764.05;106987;1314;22363;-59
2024/02/12 06:34:56;;;;;;;2.60;2.40;;;;;;;6.60;100.00;98764.08;103532;1314;22754;-58
2024/02/12 06:37:21;;;;;;;2.70;2.50;;;;;;;6.60;100.00;98766.14;103388;1308;22737;-59
2024/02/12 06:39:47;;;;;;;6.00;2.90;;;;;;;6.59;100.00;98769.27;103592;1314;23457;-58
2024/02/12 06:42:12;;;;;;;5.00;2.70;;;;;;;6.57;100.00;98774.77;103371;1301;22620;-62
2024/02/12 06:44:39;;;;;;;3.00;2.60;;;;;;;6.56;100.00;98774.29;103553;1308;24364;-58
2024/02/12 06:47:05;;;;;;;;;;;;;;;6.57;100.00;98780.95;106453;1312;23029;-59
2024/02/12 06:49:30;;;;;;;368.40;253.00;;;;;;;6.54;100.00;98782.21;103419;1292;24339;-59
2024/02/12 06:51:57;;;;;;;2.40;2.20;;;;;;;6.54;100.00;98783.09;103372;1311;22605;-59
2024/02/12 06:54:22;;;;;;;2.90;2.40;;;;;;;6.52;100.00;98791.02;103447;1314;22565;-58
2024/02/12 06:56:48;;;;;;;2.60;2.40;;;;;;;6.50;100.00;98794.83;103406;1301;22574;-61
2024/02/12 06:59:13;;;;;;;2.30;2.10;;;;;;;6.49;100.00;98795.55;103439;1295;22612;-59
2024/02/12 07:01:40;;;;;;;14.90;5.00;;;;;;;6.47;100.00;98798.52;103410;1306;26566;-58
2024/02/12 07:04:06;;;;;;;;;;;;;;;6.47;100.00;98804.70;104800;1311;22656;-59
2024/02/12 07:06:32;;;;;;;3.30;3.00;;;;;;;6.46;100.00;98807.46;105925;1314;22559;-57
2024/02/12 07:08:58;;;;;;;3.70;2.70;;;;;;;6.43;100.00;98807.88;103465;1314;22628;-58
2024/02/12 07:11:25;;;;;;;5.30;4.90;;;;;;;6.44;100.00;98809.39;103174;1316;26042;-57
2024/02/12 07:13:51;;;;;;;2.50;1.80;;;;;;;6.44;100.00;98810.42;103652;1315;22686;-58
2024/02/12 07:16:18;;;;;;;2.10;2.00;;;;;;;6.43;100.00;98811.65;103353;1311;22705;-59
2024/02/12 07:18:47;;;;;;;2.30;2.10;;;;;;;6.43;100.00;98816.27;103429;1295;23779;-57
2024/02/12 07:21:16;;;;;;;2.40;2.10;;;;;;;6.44;100.00;98814.36;103415;1313;25376;-59
2024/02/12 07:23:41;;;;;;;2.60;2.40;;;;;;;6.43;100.00;98816.79;103427;1314;22588;-58
2024/02/12 07:26:07;;;;;;;3.60;1.90;;;;;;;6.43;100.00;98820.89;103465;1314;22605;-58
2024/02/12 07:28:33;;;;;;;2.30;2.10;;;;;;;6.42;100.00;98820.75;103444;1292;22565;-57
2024/02/12 07:30:58;;;;;;;1.90;1.80;;;;;;;6.41;100.00;98822.15;103389;1314;22562;-59
2024/02/12 07:33:24;;;;;;;3.20;2.10;;;;;;;6.42;100.00;98826.41;103282;1314;25647;-58
2024/02/12 07:35:49;;;;;;;2.10;1.90;;;;;;;6.41;100.00;98825.05;103389;1313;22568;-60
2024/02/12 07:38:15;;;;;;;19.90;11.60;;;;;;;6.42;100.00;98830.85;103451;1311;22588;-57
2024/02/12 07:40:40;;;;;;;2.10;1.90;;;;;;;6.41;100.00;98834.13;103469;1295;25517;-58
2024/02/12 07:43:06;;;;;;;1.60;1.50;;;;;;;6.42;100.00;98840.61;103401;1311;24413;-60
2024/02/12 07:45:36;;;;;;;2.00;1.80;;;;;;;6.41;100.00;98842.68;103509;1314;22595;-58
2024/02/12 07:48:02;;;;;;;2.30;2.10;;;;;;;6.40;100.00;98845.62;103402;1308;22581;-59
2024/02/12 07:50:27;;;;;;;2.00;1.80;;;;;;;6.40;100.00;98847.52;103357;1299;22850;-58
2024/02/12 07:52:53;;;;;;;2.10;1.80;;;;;;;6.39;100.00;98846.67;103376;1292;22592;-60
2024/02/12 07:55:20;;;;;;;3.30;2.40;;;;;;;6.41;100.00;98851.39;103483;1311;24294;-59
2024/02/12 07:57:48;;;;;;;;;;;;;;;6.40;100.00;98855.37;104103;1314;22549;-58
2024/02/12 08:00:15;;;;;;;6.00;2.30;;;;;;;6.39;100.00;98859.00;103386;1300;23759;-59
2024/02/12 08:02:44;;;;;;;2.50;2.30;;;;;;;6.39;100.00;98864.14;103562;1314;22578;-57
2024/02/12 08:05:14;;;;;;;2.40;2.20;;;;;;;6.38;100.00;98867.42;103911;1314;25083;-58
2024/02/12 08:07:40;;;;;;;2.90;2.50;;;;;;;6.37;100.00;98867.27;107035;1314;22438;-59
2024/02/12 08:10:07;;;;;;;2.80;2.50;;;;;;;6.38;100.00;98870.83;106992;1298;22952;-59
2024/02/12 08:12:33;;;;;;;2.70;2.50;;;;;;;6.37;100.00;98872.23;104511;1314;24276;-58
2024/02/12 08:14:59;;;;;;;2.90;2.60;;;;;;;6.34;100.00;98871.62;103448;1314;22880;-59
2024/02/12 08:17:25;;;;;;;3.30;3.00;;;;;;;6.35;100.00;98875.36;103443;1307;25199;-58
2024/02/12 08:19:51;;;;;;;2.80;2.60;;;;;;;6.33;100.00;98877.46;103468;1304;24297;-57
2024/02/12 08:22:17;;;;;;;3.00;2.80;;;;;;;6.30;100.00;98883.52;106327;1314;23757;-59
2024/02/12 08:24:42;;;;;;;9.00;4.70;;;;;;;6.32;100.00;98882.28;103495;1308;22920;-59
2024/02/12 08:27:08;;;;;;;2.70;2.50;;;;;;;6.33;100.00;98887.04;103539;1310;24716;-59
2024/02/12 08:29:35;;;;;;;3.00;2.70;;;;;;;6.31;100.00;98882.98;103977;1293;22581;-58
2024/02/12 08:32:01;;;;;;;;;;;;;;;6.33;100.00;98890.98;103401;1302;22822;-57
2024/02/12 08:34:27;;;;;;;3.10;2.30;;;;;;;6.33;100.00;98893.20;103525;1301;22680;-58
2024/02/12 08:36:53;;;;;;;8.80;8.10;;;;;;;6.33;100.00;98896.98;103439;1314;23854;-58
2024/02/12 08:39:21;;;;;;;15.40;4.40;;;;;;;6.33;100.00;98896.46;103342;1314;25332;-58
2024/02/12 08:41:47;;;;;;;2.70;2.50;;;;;;;6.30;100.00;98897.21;103488;1295;22619;-59
2024/02/12 08:44:14;;;;;;;3.10;2.80;;;;;;;6.30;100.00;98904.40;103568;1313;22957;-56
2024/02/12 08:46:40;;;;;;;14.00;11.10;;;;;;;6.32;100.00;98906.41;103421;1292;22631;-58
2024/02/12 08:49:05;;;;;;;12.10;5.40;;;;;;;6.31;100.00;98909.69;103639;1314;22534;-59
2024/02/12 08:51:32;;;;;;;3.10;2.80;;;;;;;6.29;100.00;98915.72;103400;1314;22562;-58
2024/02/12 08:53:58;;;;;;;3.50;3.20;;;;;;;6.30;100.00;98918.61;103383;1314;22587;-59
2024/02/12 08:56:24;;;;;;;3.90;3.50;;;;;;;6.30;100.00;98919.64;103404;1313;22557;-57
2024/02/12 08:58:49;;;;;;;5.00;3.40;;;;;;;6.29;100.00;98926.50;103442;1301;22564;-59
2024/02/12 09:01:19;;;;;;;3.30;2.90;;;;;;;6.31;100.00;98927.83;103497;1298;23419;-59
2024/02/12 09:03:46;;;;;;;5.10;3.70;;;;;;;6.33;100.00;98929.84;103571;1314;22619;-59
2024/02/12 09:06:13;;;;;;;12.80;4.10;;;;;;;6.31;100.00;98935.36;103582;1314;25433;-59
2024/02/12 09:08:45;;;;;;;;;;;;;;;6.30;100.00;98936.73;103444;1309;25412;-58
2024/02/12 09:11:12;;;;;;;4.10;3.50;;;;;;;6.27;100.00;98940.23;105775;1295;27880;-57
2024/02/12 09:13:46;;;;;;;4.50;3.50;;;;;;;6.28;100.00;98941.27;103569;1314;25288;-57
2024/02/12 09:16:13;;;;;;;3.30;2.80;;;;;;;6.29;100.00;98942.77;103576;1311;22592;-62
2024/02/12 09:18:38;;;;;;;;;;;;;;;6.29;100.00;98952.17;103524;1314;25252;-58
2024/02/12 09:21:04;;;;;;;3.80;3.40;;;;;;;6.28;100.00;98953.05;103469;1314;22555;-62
2024/02/12 09:23:30;;;;;;;7.10;3.60;;;;;;;6.30;100.00;98956.77;103389;1302;22989;-60
2024/02/12 09:25:56;;;;;;;3.70;3.20;;;;;;;6.30;100.00;98959.85;103525;1314;22952;-60
2024/02/12 09:28:23;;;;;;;3.50;2.30;;;;;;;6.32;100.00;98963.40;103483;1314;22605;-59
2024/02/12 09:30:49;;;;;;;3.90;2.70;;;;;;;6.32;100.00;98964.59;103483;1293;22571;-59
2024/02/12 09:33:16;;;;;;;2.40;2.00;;;;;;;6.33;100.00;98971.94;103497;1314;23540;-57
2024/02/12 09:35:43;;;;;;;248.50;141.70;;;;;;;6.34;100.00;98972.95;104011;1314;22564;-59
2024/02/12 09:38:08;;;;;;;45.10;34.30;;;;;;;6.34;100.00;98979.78;103868;1314;22620;-59
2024/02/12 09:40:34;;;;;;;2.90;2.10;;;;;;;6.29;100.00;98986.23;103528;1314;22723;-58
2024/02/12 09:43:01;;;;;;;2.20;2.00;;;;;;;6.23;100.00;98986.56;103518;1295;25366;-59
2024/02/12 09:45:30;;;;;;;2.30;2.10;;;;;;;6.24;100.00;98988.92;104953;1314;22595;-58
2024/02/12 09:48:00;;;;;;;2.60;2.40;;;;;;;6.26;100.00;98990.42;103627;1310;23164;-59
2024/02/12 09:50:29;;;;;;;6.90;2.40;;;;;;;6.26;100.00;98991.77;103488;1308;22585;-56
2024/02/12 09:52:58;;;;;;;4.40;2.70;;;;;;;6.29;100.00;98995.11;103498;1296;22853;-59
2024/02/12 09:55:25;;;;;;;3.90;3.20;;;;;;;6.31;100.00;98996.11;103447;1314;25313;-60
2024/02/12 09:57:51;;;;;;;3.90;3.00;;;;;;;6.33;100.00;98996.56;103390;1314;22576;-58
2024/02/12 10:00:19;;;;;;;2.60;2.40;;;;;;;6.37;100.00;98995.95;103447;1311;22745;-57
2024/02/12 10:02:46;;;;;;;16.50;7.50;;;;;;;6.35;100.00;99000.80;103563;1294;22674;-58
2024/02/12 10:05:23;;;;;;;3.20;2.40;;;;;;;6.35;100.00;99002.17;103570;1314;26098;-58
2024/02/12 10:07:50;;;;;;;3.10;2.10;;;;;;;6.38;100.00;99003.14;103567;1314;22585;-58
2024/02/12 10:10:17;;;;;;;2.40;2.10;;;;;;;6.40;100.00;99006.31;104770;1311;22578;-58
2024/02/12 10:12:49;;;;;;;11.00;6.00;;;;;;;6.42;100.00;99006.80;103605;1298;24350;-59
2024/02/12 10:15:18;;;;;;;2.40;2.00;;;;;;;6.42;100.00;99010.38;104045;1295;22707;-59
2024/02/12 10:17:45;;;;;;;75.70;63.60;;;;;;;6.45;100.00;99013.40;104033;1303;22633;-59
2024/02/12 10:20:10;;;;;;;1.80;1.70;;;;;;;6.43;100.00;99011.56;103992;1304;23369;-59
2024/02/12 10:22:38;;;;;;;2.30;2.10;;;;;;;6.45;100.00;99016.83;103948;1288;22575;-57
2024/02/12 10:25:05;;;;;;;4.00;2.70;;;;;;;6.44;100.00;99015.48;104058;1293;23032;-59
2024/02/12 10:27:30;;;;;;;;;;;;;;;6.43;100.00;99014.13;104961;1302;313341;-59
2024/02/12 10:30:01;;;;;;;7.10;3.90;;;;;;;6.47;100.00;99015.73;104057;1304;25184;-57
2024/02/12 10:32:28;;;;;;;6.50;4.40;;;;;;;6.52;100.00;99018.52;105443;1292;22577;-59
2024/02/12 10:34:57;;;;;;;8.10;4.80;;;;;;;6.56;100.00;99018.59;104876;1298;24164;-59
2024/02/12 10:37:26;;;;;;;6.00;4.90;;;;;;;6.58;100.00;99018.04;105848;1309;26551;-59
2024/02/12 10:39:54;;;;;;;6.60;4.40;;;;;;;6.60;100.00;99019.17;103886;1295;23971;-59
2024/02/12 10:42:35;;;;;;;5.10;4.20;;;;;;;6.58;100.00;99026.39;104102;1286;22591;-58
2024/02/12 10:45:02;;;;;;;4.00;3.00;;;;;;;6.57;100.00;99027.98;104056;1308;22885;-61
2024/02/12 10:47:28;;;;;;;5.30;3.10;;;;;;;6.53;100.00;99028.60;103991;1308;22710;-59
2024/02/12 10:49:55;;;;;;;2.90;2.00;;;;;;;6.55;100.00;99031.63;104030;1308;22597;-59
2024/02/12 10:52:24;;;;;;;3.60;2.50;;;;;;;6.61;100.00;99034.39;104059;1304;25295;-59
2024/02/12 10:54:50;;;;;;;2.70;2.10;;;;;;;6.65;100.00;99034.11;103941;1309;22558;-58
2024/02/12 10:57:16;;;;;;;3.20;2.20;;;;;;;6.65;100.00;99034.45;103979;1309;25559;-58
2024/02/12 10:59:42;;;;;;;2.60;2.10;;;;;;;6.65;100.00;99032.56;107390;1308;22426;-59
2024/02/12 11:02:13;;;;;;;3.30;2.30;;;;;;;6.61;100.00;99035.58;105311;1301;24385;-59
2024/02/12 11:04:40;;;;;;;3.00;1.60;;;;;;;6.56;100.00;99040.15;104031;1289;23911;-59
2024/02/12 11:07:28;;;;;;;2.10;1.90;;;;;;;6.55;100.00;99045.15;104039;1308;22556;-58
2024/02/12 11:10:01;;;;;;;2.70;1.70;;;;;;;6.52;100.00;99046.77;104709;1305;22804;-58
2024/02/12 11:12:27;;;;;;;4.10;2.90;;;;;;;6.47;100.00;99051.15;104099;1308;23963;-57
2024/02/12 11:14:57;;;;;;;3.70;2.80;;;;;;;6.44;100.00;99055.52;104997;1288;22582;-59
2024/02/12 11:17:23;;;;;;;4.10;2.70;;;;;;;6.47;100.00;99056.98;103977;1304;23418;-58
2024/02/12 11:19:52;;;;;;;19.80;5.30;;;;;;;6.48;100.00;99055.77;104023;1307;22912;-57
2024/02/12 11:22:28;;;;;;;2.60;2.00;;;;;;;6.46;100.00;99054.95;103966;1309;22550;-58
2024/02/12 11:24:59;;;;;;;2.00;1.60;;;;;;;6.43;100.00;99058.80;104064;1288;22578;-57
2024/02/12 11:27:30;;;;;;;41.00;18.20;;;;;;;6.41;100.00;99060.22;104680;1308;22855;-59
2024/02/12 11:29:59;;;;;;;2.40;1.60;;;;;;;6.37;100.00;99064.08;104891;1308;25177;-59
2024/02/12 11:32:24;;;;;;;4.50;2.30;;;;;;;6.33;100.00;99065.38;104057;1302;23107;-59
2024/02/12 11:34:50;;;;;;;2.90;1.50;;;;;;;6.30;100.00;99068.34;104014;1291;24409;-59
2024/02/12 11:37:18;;;;;;;2.50;1.70;;;;;;;6.32;100.00;99071.37;103963;1309;22652;-59